createdAt,value
2022-09-17T00:01:33.277Z,65.90
2022-09-17T00:04:04.371Z,66.30
2022-09-17T00:06:34.944Z,65.60
2022-09-17T00:09:06.427Z,64.50
2022-09-17T00:11:37.631Z,64.90
2022-09-17T00:14:09.413Z,66.10
2022-09-17T00:16:40.436Z,66.50
2022-09-17T00:19:13.880Z,67.40
2022-09-17T00:21:43.117Z,67.30
2022-09-17T00:24:14.671Z,68.50
2022-09-17T00:26:43.909Z,67.80
2022-09-17T00:29:13.302Z,68.50
2022-09-17T00:31:41.990Z,67.80
2022-09-17T00:34:10.475Z,68.10
2022-09-17T00:36:39.891Z,68.00
2022-09-17T00:39:10.666Z,67.60
2022-09-17T00:41:40.890Z,68.40
2022-09-17T00:44:42.715Z,68.20
2022-09-17T00:47:18.245Z,68.60
2022-09-17T00:49:48.010Z,69.50
2022-09-17T00:52:23.510Z,70.00
2022-09-17T00:54:58.591Z,68.60
2022-09-17T00:57:29.551Z,68.00
2022-09-17T00:59:59.145Z,69.30
2022-09-17T01:02:28.798Z,69.50
2022-09-17T01:04:57.385Z,69.60
2022-09-17T01:07:38.114Z,69.70
2022-09-17T01:10:15.655Z,70.40
2022-09-17T01:13:00.675Z,70.70
2022-09-17T01:15:38.093Z,71.30
2022-09-17T01:18:22.950Z,70.10
2022-09-17T01:21:22.922Z,69.30
2022-09-17T01:24:07.744Z,69.70
2022-09-17T01:27:05.942Z,70.30
2022-09-17T01:29:55.490Z,69.50
2022-09-17T01:32:31.511Z,69.60
2022-09-17T01:35:05.404Z,69.40
2022-09-17T01:37:38.124Z,68.90
2022-09-17T01:40:13.733Z,67.80
2022-09-17T01:42:52.479Z,69.40
2022-09-17T01:45:27.538Z,71.50
2022-09-17T01:48:01.171Z,74.30
2022-09-17T01:50:34.478Z,75.20
2022-09-17T01:53:07.168Z,74.20
2022-09-17T01:55:39.465Z,72.70
2022-09-17T01:58:14.901Z,75.30
2022-09-17T02:00:48.185Z,75.20
2022-09-17T02:03:22.251Z,74.10
2022-09-17T02:05:56.033Z,71.90
2022-09-17T02:08:27.004Z,70.90
2022-09-17T02:11:01.515Z,70.30
2022-09-17T02:13:34.939Z,70.30
2022-09-17T02:16:08.480Z,71.70
2022-09-17T02:18:45.082Z,71.70
2022-09-17T02:21:16.980Z,73.40
2022-09-17T02:24:04.006Z,76.90
2022-09-17T02:26:36.256Z,75.40
2022-09-17T02:29:10.809Z,76.20
2022-09-17T02:31:42.665Z,74.90
2022-09-17T02:34:13.242Z,72.80
2022-09-17T02:36:41.799Z,72.00
2022-09-17T02:39:10.651Z,72.00
2022-09-17T02:41:47.933Z,72.40
2022-09-17T02:44:26.579Z,73.00
2022-09-17T02:47:11.874Z,72.70
2022-09-17T02:50:14.934Z,73.20
2022-09-17T02:52:55.836Z,72.60
2022-09-17T02:55:32.007Z,73.00
2022-09-17T02:58:10.800Z,72.70
2022-09-17T03:00:39.115Z,72.50
2022-09-17T03:03:11.659Z,72.80
2022-09-17T03:05:44.216Z,71.40
2022-09-17T03:08:15.195Z,70.50
2022-09-17T03:10:43.728Z,71.30
2022-09-17T03:13:12.137Z,72.50
2022-09-17T03:15:40.261Z,72.40
2022-09-17T03:18:08.567Z,72.20
2022-09-17T03:20:37.450Z,72.20
2022-09-17T03:23:07.143Z,72.80
2022-09-17T03:25:35.526Z,72.10
2022-09-17T03:28:04.338Z,72.20
2022-09-17T03:30:32.925Z,72.90
2022-09-17T03:33:01.251Z,72.80
2022-09-17T03:35:29.593Z,72.20
2022-09-17T03:37:58.355Z,72.30
2022-09-17T03:40:28.037Z,72.20
2022-09-17T03:42:56.410Z,72.50
2022-09-17T03:45:24.711Z,72.30
2022-09-17T03:47:52.893Z,72.60
2022-09-17T03:50:21.200Z,74.10
2022-09-17T03:52:49.602Z,73.80
2022-09-17T03:55:18.396Z,73.50
2022-09-17T03:57:47.997Z,73.00
2022-09-17T04:00:17.645Z,73.40
2022-09-17T04:02:45.932Z,77.90
2022-09-17T04:05:14.143Z,79.10
2022-09-17T04:07:42.466Z,83.90
2022-09-17T04:10:10.952Z,79.50
2022-09-17T04:12:39.400Z,79.60
2022-09-17T04:15:10.711Z,78.10
2022-09-17T04:17:39.266Z,76.30
2022-09-17T04:20:08.358Z,78.30
2022-09-17T04:22:36.696Z,77.80
2022-09-17T04:25:05.135Z,76.10
2022-09-17T04:27:33.355Z,74.70
2022-09-17T04:30:01.860Z,74.20
2022-09-17T04:32:32.104Z,73.80
2022-09-17T04:35:00.259Z,73.40
2022-09-17T04:37:28.499Z,74.60
2022-09-17T04:39:56.704Z,74.10
2022-09-17T04:42:24.920Z,73.40
2022-09-17T04:44:53.274Z,75.50
2022-09-17T04:47:21.379Z,76.30
2022-09-17T04:49:51.003Z,76.10
2022-09-17T04:52:19.205Z,75.10
2022-09-17T04:54:47.511Z,75.60
2022-09-17T04:57:15.704Z,76.20
2022-09-17T04:59:43.871Z,77.60
2022-09-17T05:02:12.324Z,76.70
2022-09-17T05:04:40.542Z,76.70
2022-09-17T05:07:13.771Z,76.70
2022-09-17T05:09:42.595Z,76.40
2022-09-17T05:12:10.924Z,75.70
2022-09-17T05:14:39.073Z,75.90
2022-09-17T05:17:07.570Z,74.30
2022-09-17T05:19:35.889Z,74.20
2022-09-17T05:22:04.271Z,71.00
2022-09-17T05:24:34.099Z,72.30
2022-09-17T05:27:02.318Z,72.80
2022-09-17T05:29:30.629Z,72.10
2022-09-17T05:31:58.713Z,72.70
2022-09-17T05:34:26.987Z,74.70
2022-09-17T05:36:55.088Z,74.80
2022-09-17T05:39:25.565Z,76.00
2022-09-17T05:41:55.784Z,75.30
2022-09-17T05:44:25.953Z,76.90
2022-09-17T05:46:55.196Z,77.50
2022-09-17T05:49:23.422Z,77.10
2022-09-17T05:51:52.576Z,74.80
2022-09-17T05:54:20.854Z,74.70
2022-09-17T05:56:49.063Z,74.60
2022-09-17T05:59:18.688Z,71.40
2022-09-17T06:01:47.001Z,72.10
2022-09-17T06:04:15.703Z,73.50
2022-09-17T06:06:43.881Z,74.10
2022-09-17T06:09:13.255Z,71.00
2022-09-17T06:11:41.428Z,71.10
2022-09-17T06:14:10.576Z,71.50
2022-09-17T06:16:40.139Z,72.80
2022-09-17T06:19:08.410Z,73.00
2022-09-17T06:21:36.587Z,71.50
2022-09-17T06:24:04.919Z,70.70
2022-09-17T06:26:33.039Z,72.40
2022-09-17T06:29:01.999Z,73.20
2022-09-17T06:31:30.230Z,74.20
2022-09-17T06:34:01.668Z,74.00
2022-09-17T06:36:29.940Z,72.70
2022-09-17T06:38:58.470Z,73.00
2022-09-17T06:41:27.086Z,72.30
2022-09-17T06:43:57.007Z,71.70
2022-09-17T06:46:25.279Z,71.70
2022-09-17T06:48:53.386Z,74.30
2022-09-17T06:51:23.526Z,74.90
2022-09-17T06:53:51.649Z,75.30
2022-09-17T06:56:19.934Z,75.90
2022-09-17T06:58:48.123Z,77.20
2022-09-17T07:01:16.533Z,76.90
2022-09-17T07:03:44.868Z,78.60
2022-09-17T07:06:13.600Z,81.00
2022-09-17T07:08:43.543Z,80.70
2022-09-17T07:11:11.911Z,81.70
2022-09-17T07:13:40.132Z,82.10
2022-09-17T07:16:08.677Z,82.10
2022-09-17T07:18:37.045Z,81.40
2022-09-17T07:21:07.440Z,80.20
2022-09-17T07:23:37.618Z,81.00
2022-09-17T07:26:09.341Z,81.90
2022-09-17T07:28:40.018Z,81.10
2022-09-17T07:31:13.667Z,81.40
2022-09-17T07:33:44.425Z,80.50
2022-09-17T07:36:14.990Z,77.80
2022-09-17T07:38:43.126Z,79.90
2022-09-17T07:41:14.520Z,79.70
2022-09-17T07:43:44.411Z,78.40
2022-09-17T07:46:16.122Z,78.70
2022-09-17T07:48:44.542Z,76.90
2022-09-17T07:51:17.259Z,79.20
2022-09-17T07:53:45.763Z,78.60
2022-09-17T07:56:15.334Z,77.40
2022-09-17T07:58:43.656Z,79.40
2022-09-17T08:01:13.448Z,77.50
2022-09-17T08:03:43.228Z,75.80
2022-09-17T08:06:13.185Z,78.30
2022-09-17T08:08:42.404Z,76.70
2022-09-17T08:11:12.500Z,76.90
2022-09-17T08:13:42.429Z,77.40
2022-09-17T08:16:13.344Z,76.60
2022-09-17T08:18:42.132Z,76.90
2022-09-17T08:21:12.651Z,79.40
2022-09-17T08:23:42.604Z,78.20
2022-09-17T08:26:14.717Z,78.80
2022-09-17T08:28:47.806Z,78.20
2022-09-17T08:31:17.548Z,79.50
2022-09-17T08:33:45.952Z,79.30
2022-09-17T08:36:16.320Z,78.00
2022-09-17T08:38:44.659Z,79.00
2022-09-17T08:41:24.114Z,77.80
2022-09-17T08:44:02.981Z,76.80
2022-09-17T08:46:34.651Z,78.90
2022-09-17T08:49:08.610Z,78.70
2022-09-17T08:51:44.752Z,75.80
2022-09-17T08:54:19.735Z,76.50
2022-09-17T08:56:57.341Z,75.10
2022-09-17T08:59:36.295Z,77.10
2022-09-17T09:02:18.552Z,74.30
2022-09-17T09:05:03.652Z,75.20
2022-09-17T09:07:37.792Z,75.20
2022-09-17T09:10:16.564Z,74.90
2022-09-17T09:12:45.523Z,74.10
2022-09-17T09:15:30.547Z,74.50
2022-09-17T09:18:03.188Z,73.00
2022-09-17T09:20:40.458Z,73.90
2022-09-17T09:23:15.627Z,74.20
2022-09-17T09:25:54.393Z,74.10
2022-09-17T09:28:43.301Z,74.60
2022-09-17T09:31:34.031Z,72.10
2022-09-17T09:34:04.024Z,73.00
2022-09-17T09:36:34.495Z,72.70
2022-09-17T09:39:09.111Z,72.60
2022-09-17T09:41:44.268Z,73.40
2022-09-17T09:44:14.604Z,72.80
2022-09-17T09:47:13.349Z,71.20
2022-09-17T09:50:08.227Z,72.40
2022-09-17T09:52:52.928Z,71.60
2022-09-17T09:55:38.612Z,72.60
2022-09-17T09:58:19.205Z,72.10
2022-09-17T10:00:48.778Z,71.30
2022-09-17T10:03:21.583Z,71.80
2022-09-17T10:05:58.436Z,71.30
2022-09-17T10:08:27.908Z,70.00
2022-09-17T10:10:58.961Z,70.90
2022-09-17T10:13:28.621Z,70.10
2022-09-17T10:15:57.740Z,68.90
2022-09-17T10:18:27.567Z,68.80
2022-09-17T10:20:58.591Z,68.60
2022-09-17T10:23:29.746Z,69.60
2022-09-17T10:25:58.463Z,67.80
2022-09-17T10:28:37.052Z,66.60
2022-09-17T10:31:10.414Z,67.70
2022-09-17T10:33:52.432Z,68.00
2022-09-17T10:36:39.566Z,68.30
2022-09-17T10:39:31.004Z,66.90
2022-09-17T10:42:00.676Z,66.70
2022-09-17T10:44:30.579Z,68.30
2022-09-17T10:47:06.401Z,68.60
2022-09-17T10:49:42.735Z,67.90
2022-09-17T10:52:14.752Z,64.40
2022-09-17T10:55:20.816Z,65.90
2022-09-17T10:58:03.135Z,65.80
2022-09-17T11:00:39.486Z,67.00
2022-09-17T11:04:00.212Z,67.50
2022-09-17T11:06:51.777Z,68.20
2022-09-17T11:09:31.446Z,66.60
2022-09-17T11:12:17.950Z,66.20
2022-09-17T11:14:55.223Z,65.00
2022-09-17T11:17:40.673Z,66.60
2022-09-17T11:20:20.161Z,67.00
2022-09-17T11:22:55.731Z,67.10
2022-09-17T11:25:35.968Z,64.10
2022-09-17T11:28:14.694Z,66.60
2022-09-17T11:30:56.246Z,66.60
2022-09-17T11:33:39.739Z,61.70
2022-09-17T11:36:14.452Z,64.40
2022-09-17T11:38:48.990Z,62.10
2022-09-17T11:41:21.195Z,59.30
2022-09-17T11:43:54.182Z,61.60
2022-09-17T11:46:25.948Z,58.40
2022-09-17T11:48:59.312Z,56.70
2022-09-17T11:51:32.632Z,58.10
2022-09-17T11:54:07.874Z,56.40
2022-09-17T11:56:42.317Z,57.80
2022-09-17T11:59:18.658Z,58.90
2022-09-17T12:01:51.440Z,59.60
2022-09-17T12:04:37.337Z,55.10
2022-09-17T12:07:18.914Z,56.00
2022-09-17T12:09:55.096Z,55.90
2022-09-17T12:12:48.293Z,55.80
2022-09-17T12:15:18.896Z,55.80
2022-09-17T12:18:14.371Z,57.10
2022-09-17T12:20:47.240Z,55.90
2022-09-17T12:23:20.274Z,55.50
2022-09-17T12:26:02.595Z,57.10
2022-09-17T12:28:36.412Z,61.10
2022-09-17T12:31:13.315Z,62.20
2022-09-17T12:33:46.636Z,65.60
2022-09-17T12:36:30.723Z,65.30
2022-09-17T12:39:32.994Z,66.20
2022-09-17T12:42:13.802Z,65.70
2022-09-17T12:45:00.822Z,66.20
2022-09-17T12:47:57.367Z,64.50
2022-09-17T12:50:37.660Z,66.50
2022-09-17T12:53:16.697Z,66.30
2022-09-17T12:56:07.783Z,67.00
2022-09-17T12:58:52.044Z,64.50
2022-09-17T13:01:26.359Z,61.10
2022-09-17T13:03:59.582Z,58.50
2022-09-17T13:06:53.755Z,58.60
2022-09-17T13:09:47.568Z,59.70
2022-09-17T13:12:25.818Z,57.30
2022-09-17T13:15:27.905Z,59.50
2022-09-17T13:18:22.926Z,54.60
2022-09-17T13:21:05.746Z,54.40
2022-09-17T13:23:37.139Z,54.00
2022-09-17T13:26:08.482Z,54.80
2022-09-17T13:31:51.157Z,51.20
2022-09-17T13:34:31.183Z,50.20
2022-09-17T13:37:01.019Z,50.50
2022-09-17T13:39:42.114Z,47.20
2022-09-17T13:42:18.680Z,49.70
2022-09-17T13:44:51.459Z,50.60
2022-09-17T13:47:35.105Z,49.30
2022-09-17T13:50:05.938Z,50.10
2022-09-17T13:52:37.370Z,51.50
2022-09-17T13:55:07.207Z,48.60
2022-09-17T13:57:47.904Z,50.40
2022-09-17T14:00:51.339Z,47.60
2022-09-17T14:03:51.108Z,48.70
2022-09-17T14:06:53.658Z,49.00
2022-09-17T14:09:45.703Z,48.20
2022-09-17T14:12:51.947Z,46.60
2022-09-17T14:15:55.506Z,47.90
2022-09-17T14:18:47.058Z,46.30
2022-09-17T14:21:26.802Z,49.40
2022-09-17T14:23:58.201Z,50.70
2022-09-17T14:26:44.202Z,49.40
2022-09-17T14:29:30.090Z,48.80
2022-09-17T14:31:59.268Z,49.40
2022-09-17T14:34:29.525Z,49.40
2022-09-17T14:37:00.267Z,52.70
2022-09-17T14:39:37.872Z,52.40
2022-09-17T14:42:08.716Z,51.10
2022-09-17T14:44:37.222Z,51.80
2022-09-17T14:47:10.511Z,50.40
2022-09-17T14:49:40.934Z,51.60
2022-09-17T14:52:26.527Z,52.80
2022-09-17T14:55:20.120Z,52.90
2022-09-17T14:57:52.831Z,54.50
2022-09-17T15:00:25.051Z,51.30
2022-09-17T15:02:59.491Z,49.60
2022-09-17T15:05:31.626Z,49.50
2022-09-17T15:08:12.924Z,50.20
2022-09-17T15:10:49.471Z,46.50
2022-09-17T15:13:20.614Z,46.40
2022-09-17T15:15:58.452Z,48.50
2022-09-17T15:18:38.144Z,45.80
2022-09-17T15:21:13.240Z,46.00
2022-09-17T15:23:43.742Z,43.90
2022-09-17T15:26:13.444Z,46.70
2022-09-17T15:28:44.965Z,46.70
2022-09-17T15:31:18.982Z,45.10
2022-09-17T15:33:48.035Z,44.90
2022-09-17T15:36:21.779Z,46.10
2022-09-17T15:38:52.083Z,48.10
2022-09-17T15:41:29.322Z,48.00
2022-09-17T15:44:28.533Z,48.80
2022-09-17T15:46:57.825Z,49.70
2022-09-17T15:49:34.996Z,48.90
2022-09-17T15:52:34.680Z,51.00
2022-09-17T15:55:04.437Z,56.40
2022-09-17T15:57:33.695Z,56.60
2022-09-17T16:00:13.972Z,58.50
2022-09-17T16:02:42.379Z,58.50
2022-09-17T16:05:55.736Z,61.80
2022-09-17T16:08:34.022Z,57.30
2022-09-17T16:11:03.733Z,58.50
2022-09-17T16:13:32.012Z,57.80
2022-09-17T16:16:00.491Z,55.80
2022-09-17T16:18:28.741Z,57.50
2022-09-17T16:20:56.906Z,55.10
2022-09-17T16:23:25.099Z,54.90
2022-09-17T16:25:53.734Z,57.40
2022-09-17T16:28:23.292Z,55.20
2022-09-17T16:30:51.694Z,56.60
2022-09-17T16:33:20.301Z,57.80
2022-09-17T16:35:48.506Z,64.20
2022-09-17T16:38:16.874Z,74.30
2022-09-17T16:40:47.639Z,76.40
2022-09-17T16:43:16.435Z,72.90
2022-09-17T16:45:58.921Z,73.50
2022-09-17T16:48:27.160Z,77.50
2022-09-17T16:50:55.375Z,80.70
2022-09-17T16:53:23.682Z,82.30
2022-09-17T16:55:51.807Z,80.80
2022-09-17T16:58:20.015Z,81.60
2022-09-17T17:00:49.663Z,80.70
2022-09-17T17:03:18.440Z,81.00
2022-09-17T17:05:46.843Z,80.10
2022-09-17T17:08:15.280Z,79.10
2022-09-17T17:10:43.423Z,77.50
2022-09-17T17:13:11.727Z,79.60
2022-09-17T17:15:41.883Z,81.60
2022-09-17T17:18:11.464Z,79.60
2022-09-17T17:20:39.633Z,77.30
2022-09-17T17:23:08.164Z,77.10
2022-09-17T17:25:36.413Z,76.70
2022-09-17T17:28:04.576Z,76.00
2022-09-17T17:30:34.968Z,74.60
2022-09-17T17:33:04.083Z,74.10
2022-09-17T17:35:34.036Z,71.50
2022-09-17T17:38:02.423Z,72.10
2022-09-17T17:40:30.604Z,71.70
2022-09-17T17:42:58.796Z,71.70
2022-09-17T17:45:27.033Z,74.30
2022-09-17T17:47:55.203Z,71.30
2022-09-17T17:50:23.376Z,72.50
2022-09-17T17:52:55.372Z,74.10
2022-09-17T17:55:23.712Z,72.20
2022-09-17T17:58:01.128Z,71.10
2022-09-17T18:00:29.819Z,71.40
2022-09-17T18:02:58.113Z,70.00
2022-09-17T18:05:26.347Z,72.10
2022-09-17T18:07:56.248Z,71.50
2022-09-17T18:10:24.698Z,69.90
2022-09-17T18:12:54.775Z,68.60
2022-09-17T18:15:22.955Z,69.60
2022-09-17T18:17:53.603Z,69.90
2022-09-17T18:20:22.142Z,68.80
2022-09-17T18:22:50.385Z,69.70
2022-09-17T18:25:20.020Z,69.50
2022-09-17T18:27:48.131Z,68.80
2022-09-17T18:30:16.661Z,68.80
2022-09-17T18:32:44.872Z,68.50
2022-09-17T18:35:13.072Z,67.20
2022-09-17T18:37:41.393Z,67.90
2022-09-17T18:40:10.479Z,67.80
2022-09-17T18:42:40.290Z,67.60
2022-09-17T18:45:09.851Z,67.40
2022-09-17T18:47:38.065Z,66.60
2022-09-17T18:50:07.254Z,66.80
2022-09-17T18:52:35.556Z,64.20
2022-09-17T18:55:03.900Z,64.30
2022-09-17T18:57:32.155Z,64.60
2022-09-17T19:00:01.995Z,65.00
2022-09-17T19:02:30.125Z,65.60
2022-09-17T19:04:58.280Z,64.40
2022-09-17T19:07:26.538Z,63.40
2022-09-17T19:09:54.689Z,64.20
2022-09-17T19:12:23.048Z,63.70
2022-09-17T19:14:51.384Z,63.50
2022-09-17T19:17:20.964Z,62.70
2022-09-17T19:19:49.208Z,63.70
2022-09-17T19:22:18.104Z,63.90
2022-09-17T19:24:46.332Z,65.20
2022-09-17T19:27:14.697Z,65.90
2022-09-17T19:29:43.144Z,64.70
2022-09-17T19:32:11.871Z,64.10
2022-09-17T19:34:42.607Z,63.80
2022-09-17T19:37:11.124Z,63.00
2022-09-17T19:39:39.320Z,64.10
2022-09-17T19:42:08.083Z,64.10
2022-09-17T19:44:36.237Z,63.10
2022-09-17T19:47:04.701Z,63.70
2022-09-17T19:49:32.846Z,63.20
2022-09-17T19:52:02.979Z,63.30
2022-09-17T19:54:31.140Z,64.00
2022-09-17T19:56:59.324Z,63.10
2022-09-17T19:59:27.720Z,61.90
2022-09-17T20:01:55.911Z,62.80
2022-09-17T20:04:24.668Z,62.50
2022-09-17T20:06:52.954Z,62.80
2022-09-17T20:09:22.771Z,62.80
2022-09-17T20:11:51.070Z,63.40
2022-09-17T20:14:19.446Z,63.90
2022-09-17T20:16:47.605Z,64.50
2022-09-17T20:19:17.998Z,64.20
2022-09-17T20:21:46.236Z,63.60
2022-09-17T20:24:14.634Z,64.00
2022-09-17T20:26:44.310Z,63.70
2022-09-17T20:29:12.486Z,64.10
2022-09-17T20:31:40.687Z,64.10
2022-09-17T20:34:08.938Z,65.00
2022-09-17T20:36:37.207Z,64.80
2022-09-17T20:39:12.336Z,65.50
2022-09-17T20:41:44.126Z,65.40
2022-09-17T20:44:12.316Z,65.40
2022-09-17T20:46:40.596Z,65.40
2022-09-17T20:49:08.798Z,65.30
2022-09-17T20:51:36.945Z,65.20
2022-09-17T20:54:05.792Z,65.50
2022-09-17T20:56:35.682Z,65.40
2022-09-17T20:59:18.771Z,65.20
2022-09-17T21:01:49.934Z,65.80
2022-09-17T21:04:20.111Z,66.00
2022-09-17T21:06:51.657Z,64.70
2022-09-17T21:09:19.923Z,64.70
2022-09-17T21:11:49.652Z,63.80
2022-09-17T21:14:20.628Z,63.80
2022-09-17T21:16:49.095Z,64.60
2022-09-17T21:19:17.308Z,65.30
2022-09-17T21:21:45.675Z,63.90
2022-09-17T21:24:13.853Z,64.10
2022-09-17T21:26:41.964Z,62.90
2022-09-17T21:29:10.423Z,63.50
2022-09-17T21:31:40.307Z,62.20
2022-09-17T21:34:11.076Z,62.90
2022-09-17T21:36:41.073Z,63.10
2022-09-17T21:39:12.851Z,62.80
2022-09-17T21:41:42.733Z,63.10
2022-09-17T21:44:11.595Z,62.90
2022-09-17T21:46:42.727Z,62.70
2022-09-17T21:49:11.729Z,62.80
2022-09-17T21:51:40.968Z,62.60
2022-09-17T21:54:11.338Z,64.60
2022-09-17T21:56:40.193Z,64.40
2022-09-17T21:59:11.137Z,65.50
2022-09-17T22:01:43.906Z,65.40
2022-09-17T22:04:14.330Z,65.80
2022-09-17T22:06:43.567Z,64.00
2022-09-17T22:09:16.213Z,64.20
2022-09-17T22:11:45.231Z,63.30
2022-09-17T22:14:15.088Z,64.50
2022-09-17T22:16:47.172Z,65.10
2022-09-17T22:19:17.495Z,63.60
2022-09-17T22:21:47.621Z,64.80
2022-09-17T22:24:17.069Z,64.40
2022-09-17T22:26:47.639Z,64.20
2022-09-17T22:29:18.452Z,63.50
2022-09-17T22:31:48.711Z,61.30
2022-09-17T22:34:18.883Z,62.50
2022-09-17T22:36:48.257Z,63.80
2022-09-17T22:39:18.910Z,63.30
2022-09-17T22:41:47.368Z,62.80
2022-09-17T22:44:17.943Z,62.10
2022-09-17T22:46:49.527Z,63.00
2022-09-17T22:49:18.072Z,62.10
2022-09-17T22:51:47.839Z,62.60
2022-09-17T22:54:17.836Z,63.30
2022-09-17T22:56:47.592Z,62.70
2022-09-17T22:59:16.395Z,63.20
2022-09-17T23:01:44.771Z,63.30
2022-09-17T23:04:14.444Z,63.40
2022-09-17T23:06:43.089Z,61.40
2022-09-17T23:09:13.829Z,62.10
2022-09-17T23:11:42.004Z,62.40
2022-09-17T23:14:12.768Z,61.20
2022-09-17T23:16:42.816Z,61.80
2022-09-17T23:19:11.423Z,61.20
2022-09-17T23:21:41.503Z,61.90
2022-09-17T23:24:11.494Z,62.00
2022-09-17T23:26:39.684Z,62.80
2022-09-17T23:29:08.174Z,61.90
2022-09-17T23:31:36.556Z,60.50
2022-09-17T23:34:06.339Z,61.00
2022-09-17T23:36:36.248Z,60.80
2022-09-17T23:39:07.652Z,61.20
2022-09-17T23:41:37.492Z,61.60
2022-09-17T23:44:13.788Z,61.30
2022-09-17T23:46:43.572Z,60.50
2022-09-17T23:49:12.892Z,61.00
2022-09-17T23:51:41.358Z,61.60
2022-09-17T23:54:10.913Z,61.80
2022-09-17T23:56:39.227Z,60.50
2022-09-17T23:59:08.707Z,60.30
